createdAt,value
2023-02-06T00:01:31.363Z,4.90
2023-02-06T00:04:00.568Z,4.75
2023-02-06T00:06:28.671Z,4.49
2023-02-06T00:08:56.606Z,5.14
2023-02-06T00:11:24.687Z,5.41
2023-02-06T00:13:53.012Z,5.27
2023-02-06T00:16:23.510Z,5.20
2023-02-06T00:18:52.190Z,5.21
2023-02-06T00:21:24.514Z,5.41
2023-02-06T00:23:53.699Z,5.36
2023-02-06T00:26:21.858Z,5.23
2023-02-06T00:28:49.945Z,5.21
2023-02-06T00:31:19.367Z,5.79
2023-02-06T00:33:47.451Z,5.40
2023-02-06T00:36:15.305Z,5.24
2023-02-06T00:38:44.444Z,5.41
2023-02-06T00:41:12.538Z,5.22
2023-02-06T00:43:40.885Z,5.28
2023-02-06T00:46:08.730Z,5.27
2023-02-06T00:48:37.898Z,5.00
2023-02-06T00:51:05.894Z,5.13
2023-02-06T00:53:34.345Z,5.46
2023-02-06T00:56:03.547Z,5.25
2023-02-06T00:58:31.401Z,5.23
2023-02-06T01:00:59.170Z,5.13
2023-02-06T01:03:27.175Z,4.84
2023-02-06T01:05:54.950Z,4.80
2023-02-06T01:08:23.015Z,5.03
2023-02-06T01:10:52.599Z,5.04
2023-02-06T01:13:23.137Z,5.03
2023-02-06T01:15:51.384Z,4.93
2023-02-06T01:18:19.513Z,4.69
2023-02-06T01:20:47.311Z,4.60
2023-02-06T01:23:15.100Z,4.30
2023-02-06T01:25:44.771Z,4.41
2023-02-06T01:28:12.683Z,4.40
2023-02-06T01:30:41.927Z,4.52
2023-02-06T01:33:09.815Z,4.13
2023-02-06T01:35:38.208Z,4.00
2023-02-06T01:38:07.984Z,3.93
2023-02-06T01:40:35.808Z,4.14
2023-02-06T01:43:03.542Z,3.96
2023-02-06T01:45:40.994Z,4.03
2023-02-06T01:48:15.451Z,3.98
2023-02-06T01:50:47.855Z,3.69
2023-02-06T01:53:18.258Z,3.64
2023-02-06T01:55:47.977Z,3.55
2023-02-06T01:58:20.360Z,3.58
2023-02-06T02:00:49.908Z,3.59
2023-02-06T02:03:19.308Z,3.56
2023-02-06T02:05:48.458Z,3.53
2023-02-06T02:08:21.179Z,3.40
2023-02-06T02:10:49.066Z,3.30
2023-02-06T02:13:17.261Z,3.19
2023-02-06T02:15:59.538Z,3.40
2023-02-06T02:18:44.500Z,3.26
2023-02-06T02:21:54.449Z,3.14
2023-02-06T02:24:28.777Z,2.94
2023-02-06T02:27:17.797Z,2.94
2023-02-06T02:30:10.579Z,2.92
2023-02-06T02:32:57.539Z,3.16
2023-02-06T02:35:31.666Z,3.12
2023-02-06T02:38:13.964Z,2.76
2023-02-06T02:40:48.583Z,2.71
2023-02-06T02:43:30.902Z,2.70
2023-02-06T02:46:03.988Z,3.00
2023-02-06T02:48:36.793Z,2.70
2023-02-06T02:51:07.087Z,2.43
2023-02-06T02:53:34.872Z,2.73
2023-02-06T02:56:02.816Z,2.50
2023-02-06T02:58:35.771Z,2.58
2023-02-06T03:01:08.249Z,2.76
2023-02-06T03:03:37.965Z,2.83
2023-02-06T03:06:23.010Z,2.65
2023-02-06T03:09:00.139Z,2.82
2023-02-06T03:11:29.073Z,2.85
2023-02-06T03:14:03.705Z,2.86
2023-02-06T03:16:38.958Z,2.60
2023-02-06T03:19:10.050Z,2.73
2023-02-06T03:21:43.207Z,2.70
2023-02-06T03:24:13.930Z,3.06
2023-02-06T03:26:43.873Z,3.01
2023-02-06T03:29:17.049Z,3.14
2023-02-06T03:31:49.142Z,2.77
2023-02-06T03:34:21.558Z,3.11
2023-02-06T03:36:51.730Z,2.92
2023-02-06T03:39:20.128Z,2.69
2023-02-06T03:41:48.468Z,2.58
2023-02-06T03:44:20.608Z,2.83
2023-02-06T03:46:50.354Z,2.83
2023-02-06T03:49:20.427Z,3.15
2023-02-06T03:51:52.759Z,3.07
2023-02-06T03:54:23.632Z,2.84
2023-02-06T03:56:55.153Z,3.10
2023-02-06T03:59:23.263Z,3.35
2023-02-06T04:01:55.060Z,3.06
2023-02-06T04:04:29.101Z,3.18
2023-02-06T04:06:59.654Z,2.60
2023-02-06T04:09:27.444Z,2.68
2023-02-06T04:11:55.302Z,3.08
2023-02-06T04:14:23.114Z,3.15
2023-02-06T04:16:51.002Z,3.05
2023-02-06T04:19:18.775Z,2.84
2023-02-06T04:21:46.509Z,2.75
2023-02-06T04:24:15.638Z,3.00
2023-02-06T04:26:43.366Z,2.97
2023-02-06T04:29:12.777Z,3.22
2023-02-06T04:31:40.779Z,3.31
2023-02-06T04:34:09.067Z,3.09
2023-02-06T04:36:36.917Z,3.31
2023-02-06T04:39:05.752Z,3.31
2023-02-06T04:41:35.064Z,3.13
2023-02-06T04:44:02.884Z,3.24
2023-02-06T04:46:30.719Z,3.50
2023-02-06T04:48:58.535Z,3.19
2023-02-06T04:51:26.271Z,3.17
2023-02-06T04:53:54.083Z,3.01
2023-02-06T04:56:21.830Z,3.17
2023-02-06T04:58:50.956Z,3.30
2023-02-06T05:01:19.713Z,3.34
2023-02-06T05:03:47.873Z,3.36
2023-02-06T05:06:15.954Z,3.53
2023-02-06T05:08:43.828Z,3.60
2023-02-06T05:11:11.668Z,3.56
2023-02-06T05:13:39.525Z,3.83
2023-02-06T05:16:09.776Z,3.92
2023-02-06T05:18:38.305Z,4.18
2023-02-06T05:21:07.005Z,4.07
2023-02-06T05:23:35.185Z,3.72
2023-02-06T05:26:03.467Z,3.62
2023-02-06T05:28:33.409Z,3.92
2023-02-06T05:31:01.697Z,3.73
2023-02-06T05:33:31.116Z,3.80
2023-02-06T05:36:03.324Z,3.90
2023-02-06T05:38:31.323Z,3.83
2023-02-06T05:40:59.225Z,4.00
2023-02-06T05:43:27.308Z,4.02
2023-02-06T05:45:55.100Z,3.82
2023-02-06T05:48:22.884Z,4.20
2023-02-06T05:50:52.225Z,4.52
2023-02-06T05:53:19.984Z,4.38
2023-02-06T05:55:47.734Z,4.48
2023-02-06T05:58:15.850Z,4.40
2023-02-06T06:00:43.646Z,4.61
2023-02-06T06:03:11.446Z,4.64
2023-02-06T06:05:39.180Z,4.77
2023-02-06T06:08:08.402Z,4.66
2023-02-06T06:10:36.280Z,5.01
2023-02-06T06:13:04.075Z,4.97
2023-02-06T06:15:31.847Z,4.45
2023-02-06T06:17:59.624Z,4.45
2023-02-06T06:20:27.531Z,4.85
2023-02-06T06:22:55.250Z,4.67
2023-02-06T06:25:24.349Z,4.60
2023-02-06T06:27:52.258Z,5.15
2023-02-06T06:30:20.270Z,5.17
2023-02-06T06:32:48.124Z,4.94
2023-02-06T06:35:15.902Z,5.16
2023-02-06T06:37:43.830Z,4.81
2023-02-06T06:40:13.155Z,4.77
2023-02-06T06:42:42.292Z,5.33
2023-02-06T06:45:10.403Z,4.94
2023-02-06T06:47:38.339Z,5.24
2023-02-06T06:50:07.360Z,5.26
2023-02-06T06:52:35.131Z,5.08
2023-02-06T06:55:02.982Z,5.09
2023-02-06T06:57:32.444Z,5.18
2023-02-06T07:00:01.637Z,4.86
2023-02-06T07:02:29.434Z,5.21
2023-02-06T07:04:57.247Z,5.19
2023-02-06T07:07:25.018Z,4.96
2023-02-06T07:09:52.830Z,5.33
2023-02-06T07:12:20.593Z,5.04
2023-02-06T07:14:48.404Z,5.08
2023-02-06T07:17:17.797Z,4.62
2023-02-06T07:19:48.053Z,4.97
2023-02-06T07:22:16.343Z,4.83
2023-02-06T07:24:44.343Z,4.98
2023-02-06T07:27:12.176Z,5.25
2023-02-06T07:29:40.113Z,4.93
2023-02-06T07:32:07.858Z,4.80
2023-02-06T07:34:37.125Z,4.84
2023-02-06T07:37:05.350Z,4.99
2023-02-06T07:39:33.252Z,5.46
2023-02-06T07:42:00.978Z,5.06
2023-02-06T07:44:42.360Z,5.30
2023-02-06T07:47:10.497Z,5.06
2023-02-06T07:49:39.657Z,4.63
2023-02-06T07:52:07.686Z,5.04
2023-02-06T07:54:35.550Z,4.77
2023-02-06T07:57:03.357Z,4.71
2023-02-06T07:59:31.394Z,5.13
2023-02-06T08:02:00.362Z,5.10
2023-02-06T08:04:34.949Z,5.12
2023-02-06T08:07:04.992Z,5.14
2023-02-06T08:09:33.110Z,5.15
2023-02-06T08:12:00.878Z,5.29
2023-02-06T08:14:29.280Z,5.15
2023-02-06T08:16:57.048Z,5.13
2023-02-06T08:19:25.251Z,4.86
2023-02-06T08:21:53.169Z,4.93
2023-02-06T08:24:22.481Z,5.19
2023-02-06T08:26:50.297Z,5.20
2023-02-06T08:29:18.079Z,4.81
2023-02-06T08:31:45.926Z,5.16
2023-02-06T08:34:15.561Z,5.01
2023-02-06T08:36:44.077Z,5.24
2023-02-06T08:39:14.280Z,5.14
2023-02-06T08:41:44.785Z,5.64
2023-02-06T08:44:16.044Z,5.56
2023-02-06T08:46:45.258Z,5.11
2023-02-06T08:49:15.563Z,5.22
2023-02-06T08:51:43.712Z,5.10
2023-02-06T08:54:13.681Z,5.14
2023-02-06T08:56:42.892Z,5.24
2023-02-06T08:59:11.295Z,5.23
2023-02-06T09:01:39.347Z,4.60
2023-02-06T09:04:09.722Z,4.83
2023-02-06T09:06:39.410Z,5.24
2023-02-06T09:09:08.461Z,5.52
2023-02-06T09:11:36.771Z,5.11
2023-02-06T09:14:07.398Z,5.01
2023-02-06T09:16:37.630Z,5.48
2023-02-06T09:19:06.510Z,5.54
2023-02-06T09:21:36.031Z,5.32
2023-02-06T09:24:06.681Z,5.53
2023-02-06T09:26:44.820Z,5.76
2023-02-06T09:29:19.516Z,5.50
2023-02-06T09:31:47.704Z,5.76
2023-02-06T09:34:15.826Z,6.03
2023-02-06T09:36:43.761Z,5.85
2023-02-06T09:39:11.527Z,5.91
2023-02-06T09:41:45.541Z,5.63
2023-02-06T09:44:17.923Z,5.64
2023-02-06T09:46:53.004Z,5.54
2023-02-06T09:49:25.891Z,5.76
2023-02-06T09:52:15.212Z,5.84
2023-02-06T09:54:53.435Z,5.51
2023-02-06T09:57:32.305Z,5.68
2023-02-06T10:00:03.540Z,5.83
2023-02-06T10:03:01.936Z,6.43
2023-02-06T10:05:40.885Z,6.38
2023-02-06T10:08:17.182Z,6.56
2023-02-06T10:10:50.649Z,7.20
2023-02-06T10:13:27.039Z,6.10
2023-02-06T10:15:58.782Z,5.44
2023-02-06T10:18:34.513Z,6.29
2023-02-06T10:21:08.806Z,6.61
2023-02-06T10:23:42.497Z,7.09
2023-02-06T10:26:17.185Z,7.13
2023-02-06T10:28:48.271Z,7.62
2023-02-06T10:31:44.995Z,7.57
2023-02-06T10:34:35.064Z,7.59
2023-02-06T10:37:19.850Z,7.54
2023-02-06T10:40:01.159Z,7.72
2023-02-06T10:42:39.741Z,7.85
2023-02-06T10:45:20.154Z,7.93
2023-02-06T10:47:55.311Z,8.67
2023-02-06T10:50:29.608Z,8.28
2023-02-06T10:53:01.100Z,8.41
2023-02-06T10:55:32.752Z,9.04
2023-02-06T10:58:06.745Z,8.75
2023-02-06T11:00:35.059Z,7.57
2023-02-06T11:03:08.206Z,7.37
2023-02-06T11:05:38.350Z,7.96
2023-02-06T11:08:12.526Z,7.82
2023-02-06T11:10:41.103Z,7.48
2023-02-06T11:13:14.874Z,7.70
2023-02-06T11:15:52.137Z,7.31
2023-02-06T11:18:23.301Z,7.04
2023-02-06T11:20:54.839Z,7.24
2023-02-06T11:23:25.304Z,7.62
2023-02-06T11:26:06.003Z,7.63
2023-02-06T11:28:35.586Z,7.69
2023-02-06T11:31:06.047Z,7.63
2023-02-06T11:33:39.865Z,6.76
2023-02-06T11:36:23.657Z,6.65
2023-02-06T11:38:57.608Z,6.65
2023-02-06T11:41:26.188Z,6.83
2023-02-06T11:44:01.547Z,7.19
2023-02-06T11:46:31.114Z,6.85
2023-02-06T11:49:05.524Z,5.96
2023-02-06T11:51:49.817Z,5.62
2023-02-06T11:54:24.164Z,5.97
2023-02-06T11:57:04.838Z,6.45
2023-02-06T11:59:34.923Z,6.91
2023-02-06T12:02:05.755Z,6.10
2023-02-06T12:04:38.695Z,6.82
2023-02-06T12:07:17.539Z,6.86
2023-02-06T12:09:45.711Z,6.17
2023-02-06T12:12:22.417Z,6.31
2023-02-06T12:14:54.935Z,6.57
2023-02-06T12:17:28.256Z,6.56
2023-02-06T12:20:04.594Z,6.38
2023-02-06T12:22:40.301Z,6.59
2023-02-06T12:25:26.159Z,6.73
2023-02-06T12:27:58.368Z,7.26
2023-02-06T12:30:40.378Z,7.28
2023-02-06T12:33:14.086Z,8.80
2023-02-06T12:35:45.140Z,9.14
2023-02-06T12:38:22.121Z,9.37
2023-02-06T12:41:00.349Z,8.94
2023-02-06T12:43:31.042Z,8.66
2023-02-06T12:46:03.392Z,8.82
2023-02-06T12:48:38.212Z,9.12
2023-02-06T12:51:13.454Z,8.84
2023-02-06T12:53:50.584Z,9.04
2023-02-06T12:56:29.731Z,8.90
2023-02-06T12:59:11.914Z,9.17
2023-02-06T13:01:58.390Z,9.12
2023-02-06T13:04:28.506Z,8.78
2023-02-06T13:07:00.585Z,9.19
2023-02-06T13:09:35.382Z,9.39
2023-02-06T13:12:14.045Z,9.73
2023-02-06T13:14:47.583Z,9.92
2023-02-06T13:17:19.160Z,10.30
2023-02-06T13:20:01.197Z,9.98
2023-02-06T13:22:45.240Z,10.66
2023-02-06T13:25:53.424Z,11.09
2023-02-06T13:28:42.517Z,10.89
2023-02-06T13:31:33.664Z,10.99
2023-02-06T13:34:06.840Z,11.29
2023-02-06T13:36:55.053Z,10.97
2023-02-06T13:39:29.515Z,11.43
2023-02-06T13:42:00.248Z,11.01
2023-02-06T13:44:33.168Z,10.45
2023-02-06T13:47:33.726Z,9.79
2023-02-06T13:50:39.846Z,10.39
2023-02-06T13:53:30.445Z,10.10
2023-02-06T13:56:11.132Z,10.17
2023-02-06T13:58:44.343Z,9.37
2023-02-06T14:01:19.981Z,9.40
2023-02-06T14:03:50.442Z,9.52
2023-02-06T14:06:30.591Z,9.51
2023-02-06T14:09:08.761Z,9.36
2023-02-06T14:12:11.748Z,9.10
2023-02-06T14:14:54.140Z,9.38
2023-02-06T14:17:38.370Z,8.33
2023-02-06T14:20:16.636Z,8.37
2023-02-06T14:22:54.783Z,8.05
2023-02-06T14:25:39.083Z,8.12
2023-02-06T14:28:15.165Z,8.11
2023-02-06T14:30:50.072Z,7.91
2023-02-06T14:33:33.392Z,7.94
2023-02-06T14:36:13.583Z,8.31
2023-02-06T14:38:58.225Z,8.49
2023-02-06T14:41:29.401Z,8.32
2023-02-06T14:43:57.694Z,7.96
2023-02-06T14:46:25.884Z,8.19
2023-02-06T14:48:58.230Z,8.40
2023-02-06T14:51:28.518Z,8.41
2023-02-06T14:53:58.484Z,8.23
2023-02-06T14:56:30.086Z,7.86
2023-02-06T14:58:58.077Z,8.06
2023-02-06T15:01:29.915Z,8.54
2023-02-06T15:04:12.285Z,8.48
2023-02-06T15:06:42.259Z,8.16
2023-02-06T15:09:24.680Z,8.28
2023-02-06T15:11:53.501Z,8.07
2023-02-06T15:14:23.438Z,7.94
2023-02-06T15:16:52.538Z,7.94
2023-02-06T15:19:24.240Z,8.13
2023-02-06T15:21:56.419Z,8.48
2023-02-06T15:24:37.953Z,8.26
2023-02-06T15:27:14.611Z,8.20
2023-02-06T15:29:49.355Z,7.99
2023-02-06T15:32:27.944Z,7.74
2023-02-06T15:34:57.142Z,7.85
2023-02-06T15:37:27.841Z,7.57
2023-02-06T15:39:56.762Z,7.74
2023-02-06T15:42:24.831Z,8.28
2023-02-06T15:44:52.894Z,7.86
2023-02-06T15:47:22.450Z,7.86
2023-02-06T15:49:53.117Z,7.56
2023-02-06T15:52:37.113Z,7.77
2023-02-06T15:55:05.799Z,8.04
2023-02-06T15:57:35.801Z,7.58
2023-02-06T16:00:09.490Z,7.50
2023-02-06T16:02:41.486Z,7.43
2023-02-06T16:05:19.737Z,7.48
2023-02-06T16:07:51.285Z,7.51
2023-02-06T16:10:23.262Z,7.34
2023-02-06T16:12:52.261Z,7.20
2023-02-06T16:15:27.813Z,7.22
2023-02-06T16:17:56.738Z,7.06
2023-02-06T16:20:33.161Z,6.81
2023-02-06T16:23:23.133Z,6.81
2023-02-06T16:26:01.508Z,6.85
2023-02-06T16:28:29.745Z,6.92
2023-02-06T16:31:00.013Z,6.68
2023-02-06T16:33:35.439Z,6.53
2023-02-06T16:36:03.505Z,6.65
2023-02-06T16:38:32.885Z,7.13
2023-02-06T16:41:00.875Z,6.86
2023-02-06T16:43:31.558Z,7.21
2023-02-06T16:46:02.002Z,7.12
2023-02-06T16:48:29.903Z,7.22
2023-02-06T16:50:57.704Z,7.73
2023-02-06T16:53:26.808Z,7.22
2023-02-06T16:55:55.976Z,7.26
2023-02-06T16:58:27.048Z,7.15
2023-02-06T17:00:55.714Z,7.19
2023-02-06T17:03:23.520Z,7.08
2023-02-06T17:05:53.686Z,7.18
2023-02-06T17:08:24.934Z,6.94
2023-02-06T17:10:53.039Z,6.85
2023-02-06T17:13:24.313Z,6.65
2023-02-06T17:15:53.377Z,6.35
2023-02-06T17:18:22.840Z,6.26
2023-02-06T17:20:52.743Z,6.62
2023-02-06T17:23:21.036Z,6.62
2023-02-06T17:25:49.087Z,6.46
2023-02-06T17:28:19.247Z,6.50
2023-02-06T17:30:50.751Z,7.02
2023-02-06T17:33:18.769Z,6.83
2023-02-06T17:35:48.455Z,6.54
2023-02-06T17:38:16.311Z,6.64
2023-02-06T17:40:44.366Z,6.72
2023-02-06T17:43:12.226Z,6.65
2023-02-06T17:45:41.087Z,6.39
2023-02-06T17:48:10.454Z,6.49
2023-02-06T17:50:40.656Z,6.67
2023-02-06T17:53:10.353Z,6.34
2023-02-06T17:55:38.148Z,6.05
2023-02-06T17:58:06.042Z,6.13
2023-02-06T18:00:34.377Z,5.89
2023-02-06T18:03:02.384Z,5.65
2023-02-06T18:05:31.966Z,5.85
2023-02-06T18:07:59.793Z,5.79
2023-02-06T18:10:27.674Z,5.73
2023-02-06T18:12:55.495Z,5.99
2023-02-06T18:15:23.303Z,6.11
2023-02-06T18:17:51.515Z,6.00
2023-02-06T18:20:19.820Z,6.05
2023-02-06T18:22:48.951Z,5.46
2023-02-06T18:25:16.814Z,5.12
2023-02-06T18:27:45.991Z,5.17
2023-02-06T18:30:15.315Z,5.37
2023-02-06T18:32:43.086Z,5.24
2023-02-06T18:35:11.477Z,5.39
2023-02-06T18:37:39.239Z,5.09
2023-02-06T18:40:09.179Z,4.73
2023-02-06T18:42:55.034Z,4.67
2023-02-06T18:45:24.753Z,4.99
2023-02-06T18:47:52.816Z,4.83
2023-02-06T18:50:22.144Z,4.72
2023-02-06T18:52:50.693Z,4.91
2023-02-06T18:55:20.773Z,4.71
2023-02-06T18:57:48.913Z,4.67
2023-02-06T19:00:18.941Z,4.76
2023-02-06T19:02:47.140Z,4.41
2023-02-06T19:05:15.525Z,4.40
2023-02-06T19:07:43.592Z,4.18
2023-02-06T19:10:12.985Z,4.27
2023-02-06T19:12:42.264Z,4.26
2023-02-06T19:15:11.425Z,4.39
2023-02-06T19:17:39.857Z,4.53
2023-02-06T19:20:08.546Z,4.56
2023-02-06T19:22:36.993Z,4.22
2023-02-06T19:25:09.821Z,4.03
2023-02-06T19:27:39.230Z,4.15
2023-02-06T19:30:09.607Z,4.16
2023-02-06T19:32:37.687Z,3.93
2023-02-06T19:35:06.470Z,3.83
2023-02-06T19:37:34.303Z,3.31
2023-02-06T19:40:02.092Z,3.33
2023-02-06T19:42:29.935Z,2.99
2023-02-06T19:44:57.720Z,3.13
2023-02-06T19:47:26.911Z,3.21
2023-02-06T19:49:54.776Z,2.80
2023-02-06T19:52:22.547Z,3.07
2023-02-06T19:54:50.382Z,3.12
2023-02-06T19:57:19.369Z,3.01
2023-02-06T19:59:47.274Z,3.14
2023-02-06T20:02:16.526Z,3.32
2023-02-06T20:04:46.298Z,3.23
2023-02-06T20:07:14.228Z,3.01
2023-02-06T20:09:42.710Z,3.19
2023-02-06T20:12:12.325Z,2.77
2023-02-06T20:14:40.410Z,2.53
2023-02-06T20:17:08.358Z,2.64
2023-02-06T20:19:36.307Z,2.65
2023-02-06T20:22:05.941Z,2.78
2023-02-06T20:24:34.664Z,2.82
2023-02-06T20:27:07.725Z,2.93
2023-02-06T20:29:37.480Z,2.56
2023-02-06T20:32:06.501Z,2.72
2023-02-06T20:34:34.875Z,2.62
2023-02-06T20:37:02.836Z,2.76
2023-02-06T20:39:32.018Z,3.16
2023-02-06T20:42:00.113Z,2.62
2023-02-06T20:44:28.737Z,2.86
2023-02-06T20:46:56.628Z,2.84
2023-02-06T20:49:26.476Z,2.42
2023-02-06T20:51:54.710Z,2.30
2023-02-06T20:54:23.214Z,2.26
2023-02-06T20:56:52.548Z,2.18
2023-02-06T20:59:21.537Z,2.01
2023-02-06T21:01:50.051Z,1.87
2023-02-06T21:04:19.057Z,1.54
2023-02-06T21:06:47.931Z,1.80
2023-02-06T21:09:16.431Z,1.69
2023-02-06T21:11:46.691Z,2.01
2023-02-06T21:14:16.780Z,2.10
2023-02-06T21:16:44.888Z,2.23
2023-02-06T21:19:15.066Z,1.90
2023-02-06T21:21:46.096Z,1.83
2023-02-06T21:24:15.093Z,2.04
2023-02-06T21:26:43.242Z,1.87
2023-02-06T21:29:12.499Z,2.11
2023-02-06T21:31:41.909Z,1.94
2023-02-06T21:34:14.518Z,1.73
2023-02-06T21:36:43.018Z,2.11
2023-02-06T21:39:12.737Z,2.24
2023-02-06T21:41:40.532Z,2.17
2023-02-06T21:44:08.332Z,2.38
2023-02-06T21:46:36.241Z,2.17
2023-02-06T21:49:06.352Z,2.15
2023-02-06T21:51:34.432Z,2.37
2023-02-06T21:54:02.437Z,1.80
2023-02-06T21:56:30.895Z,1.61
2023-02-06T21:58:59.088Z,1.64
2023-02-06T22:01:29.135Z,1.79
2023-02-06T22:03:59.693Z,1.82
2023-02-06T22:06:29.896Z,1.89
2023-02-06T22:09:04.995Z,2.01
2023-02-06T22:11:33.119Z,1.52
2023-02-06T22:14:02.638Z,1.63
2023-02-06T22:16:34.001Z,1.54
2023-02-06T22:19:02.044Z,1.69
2023-02-06T22:21:32.720Z,1.74
2023-02-06T22:24:02.598Z,2.09
2023-02-06T22:26:31.156Z,1.84
2023-02-06T22:28:59.359Z,2.17
2023-02-06T22:31:29.412Z,2.03
2023-02-06T22:33:59.252Z,1.94
2023-02-06T22:36:29.069Z,1.98
2023-02-06T22:39:00.557Z,2.13
2023-02-06T22:41:28.913Z,2.24
2023-02-06T22:43:57.197Z,1.77
2023-02-06T22:46:26.918Z,1.71
2023-02-06T22:48:55.386Z,1.67
2023-02-06T22:51:23.943Z,1.58
2023-02-06T22:53:52.255Z,1.21
2023-02-06T22:56:38.187Z,1.42
2023-02-06T22:59:07.953Z,1.66
2023-02-06T23:01:37.859Z,1.24
2023-02-06T23:04:07.330Z,1.41
2023-02-06T23:06:36.482Z,1.65
2023-02-06T23:09:06.432Z,1.20
2023-02-06T23:11:36.526Z,1.35
2023-02-06T23:14:06.511Z,1.28
2023-02-06T23:16:35.459Z,1.87
2023-02-06T23:19:05.633Z,1.86
2023-02-06T23:21:35.784Z,1.40
2023-02-06T23:24:04.352Z,1.55
2023-02-06T23:26:32.690Z,1.71
2023-02-06T23:29:04.301Z,1.72
2023-02-06T23:31:32.399Z,1.39
2023-02-06T23:34:00.643Z,1.50
2023-02-06T23:36:29.588Z,1.63
2023-02-06T23:38:57.443Z,1.06
2023-02-06T23:41:27.456Z,1.39
2023-02-06T23:43:57.655Z,1.06
2023-02-06T23:46:28.126Z,0.98
2023-02-06T23:48:56.268Z,1.33
2023-02-06T23:51:24.822Z,1.37
2023-02-06T23:53:53.573Z,1.24
2023-02-06T23:56:23.402Z,1.47
2023-02-06T23:58:52.530Z,1.22
